createdAt,value
2023-02-22T00:01:42.813Z,100880.69
2023-02-22T00:04:10.824Z,100874.25
2023-02-22T00:06:37.232Z,100872.91
2023-02-22T00:09:03.867Z,100869.53
2023-02-22T00:11:31.601Z,100867.16
2023-02-22T00:13:58.315Z,100866.47
2023-02-22T00:16:26.032Z,100864.81
2023-02-22T00:18:53.241Z,100854.22
2023-02-22T00:21:20.700Z,100862.59
2023-02-22T00:23:48.144Z,100855.63
2023-02-22T00:26:21.525Z,100851.56
2023-02-22T00:28:50.926Z,100852.09
2023-02-22T00:31:18.067Z,100859.81
2023-02-22T00:33:44.791Z,100855.91
2023-02-22T00:36:13.211Z,100847.06
2023-02-22T00:38:40.477Z,100852.03
2023-02-22T00:41:07.216Z,100849.66
2023-02-22T00:43:34.202Z,100845.22
2023-02-22T00:46:00.796Z,100849.66
2023-02-22T00:48:28.302Z,100843.16
2023-02-22T00:50:57.904Z,100844.00
2023-02-22T00:53:25.316Z,100838.75
2023-02-22T00:55:52.729Z,100835.53
2023-02-22T00:58:19.221Z,100842.16
2023-02-22T01:00:46.852Z,100835.38
2023-02-22T01:03:15.298Z,100827.75
2023-02-22T01:05:42.942Z,100826.41
2023-02-22T01:08:12.057Z,100823.34
2023-02-22T01:10:40.057Z,100821.16
2023-02-22T01:13:09.174Z,100822.38
2023-02-22T01:15:37.483Z,100812.69
2023-02-22T01:18:05.227Z,100809.25
2023-02-22T01:20:32.451Z,100813.88
2023-02-22T01:23:01.103Z,100806.72
2023-02-22T01:25:30.728Z,100807.25
2023-02-22T01:27:58.845Z,100808.47
2023-02-22T01:30:28.527Z,100809.66
2023-02-22T01:32:55.725Z,100809.84
2023-02-22T01:35:25.721Z,100806.28
2023-02-22T01:37:52.165Z,100809.34
2023-02-22T01:40:25.843Z,100798.47
2023-02-22T01:42:57.647Z,100798.47
2023-02-22T01:45:30.364Z,100792.16
2023-02-22T01:48:24.908Z,100787.56
2023-02-22T01:51:13.890Z,100787.88
2023-02-22T01:53:43.209Z,100787.72
2023-02-22T01:56:10.304Z,100790.44
2023-02-22T01:58:39.981Z,100789.59
2023-02-22T02:01:07.190Z,100784.13
2023-02-22T02:03:37.123Z,100786.34
2023-02-22T02:06:08.021Z,100779.50
2023-02-22T02:08:51.806Z,100778.47
2023-02-22T02:11:21.998Z,100776.41
2023-02-22T02:13:57.865Z,100777.44
2023-02-22T02:16:35.730Z,100769.25
2023-02-22T02:19:03.480Z,100764.66
2023-02-22T02:21:58.384Z,100766.53
2023-02-22T02:24:50.455Z,100759.56
2023-02-22T02:27:47.781Z,100768.09
2023-02-22T02:30:42.190Z,100753.28
2023-02-22T02:33:29.419Z,100760.13
2023-02-22T02:36:12.707Z,100763.22
2023-02-22T02:38:45.741Z,100758.28
2023-02-22T02:41:21.662Z,100758.00
2023-02-22T02:44:15.792Z,100759.88
2023-02-22T02:46:56.212Z,100768.94
2023-02-22T02:49:29.061Z,100773.75
2023-02-22T02:51:57.038Z,100763.84
2023-02-22T02:54:24.848Z,100767.59
2023-02-22T02:56:51.295Z,100767.44
2023-02-22T02:59:32.681Z,100757.03
2023-02-22T03:02:02.210Z,100758.75
2023-02-22T03:04:48.911Z,100747.84
2023-02-22T03:07:27.098Z,100750.38
2023-02-22T03:10:38.567Z,100759.59
2023-02-22T03:13:24.767Z,100757.03
2023-02-22T03:16:21.368Z,100755.31
2023-02-22T03:19:07.204Z,100741.91
2023-02-22T03:21:50.235Z,100747.34
2023-02-22T03:24:52.894Z,100748.16
2023-02-22T03:27:35.117Z,100755.31
2023-02-22T03:30:07.299Z,100746.63
2023-02-22T03:32:39.247Z,100743.38
2023-02-22T03:35:10.010Z,100743.00
2023-02-22T03:37:41.180Z,100741.44
2023-02-22T03:40:16.684Z,100743.28
2023-02-22T03:42:48.812Z,100741.91
2023-02-22T03:45:17.694Z,100741.53
2023-02-22T03:47:58.516Z,100751.06
2023-02-22T03:50:33.004Z,100738.09
2023-02-22T03:52:59.472Z,100743.94
2023-02-22T03:55:28.742Z,100751.41
2023-02-22T03:57:59.055Z,100752.81
2023-02-22T04:00:29.974Z,100753.84
2023-02-22T04:02:56.779Z,100744.13
2023-02-22T04:05:25.063Z,100751.28
2023-02-22T04:07:57.060Z,100744.97
2023-02-22T04:10:24.959Z,100754.19
2023-02-22T04:12:51.941Z,100747.72
2023-02-22T04:15:22.219Z,100750.44
2023-02-22T04:17:48.764Z,100753.31
2023-02-22T04:20:15.532Z,100750.78
2023-02-22T04:22:41.925Z,100748.06
2023-02-22T04:25:08.787Z,100750.59
2023-02-22T04:27:35.172Z,100746.69
2023-02-22T04:30:01.644Z,100744.13
2023-02-22T04:32:28.050Z,100742.09
2023-02-22T04:34:54.477Z,100738.50
2023-02-22T04:37:20.882Z,100735.78
2023-02-22T04:39:47.340Z,100732.38
2023-02-22T04:42:13.735Z,100736.16
2023-02-22T04:44:40.139Z,100731.03
2023-02-22T04:47:06.517Z,100726.78
2023-02-22T04:49:32.929Z,100740.63
2023-02-22T04:51:59.298Z,100725.28
2023-02-22T04:54:25.696Z,100731.75
2023-02-22T04:56:52.178Z,100724.44
2023-02-22T04:59:19.733Z,100727.00
2023-02-22T05:01:46.647Z,100727.66
2023-02-22T05:04:13.150Z,100724.91
2023-02-22T05:06:39.578Z,100723.91
2023-02-22T05:09:06.116Z,100719.31
2023-02-22T05:11:32.574Z,100720.31
2023-02-22T05:13:58.991Z,100724.06
2023-02-22T05:16:26.406Z,100718.97
2023-02-22T05:18:52.826Z,100709.28
2023-02-22T05:21:19.400Z,100716.97
2023-02-22T05:23:45.889Z,100720.88
2023-02-22T05:26:12.330Z,100722.25
2023-02-22T05:28:39.022Z,100719.25
2023-02-22T05:31:07.282Z,100712.44
2023-02-22T05:33:33.762Z,100722.84
2023-02-22T05:36:00.167Z,100721.31
2023-02-22T05:38:26.614Z,100713.50
2023-02-22T05:40:53.102Z,100720.00
2023-02-22T05:43:19.503Z,100712.13
2023-02-22T05:45:46.001Z,100721.38
2023-02-22T05:48:12.932Z,100719.66
2023-02-22T05:50:39.597Z,100716.06
2023-02-22T05:53:06.127Z,100715.91
2023-02-22T05:55:33.065Z,100711.47
2023-02-22T05:57:59.712Z,100713.34
2023-02-22T06:00:29.585Z,100710.78
2023-02-22T06:03:04.788Z,100705.34
2023-02-22T06:05:31.627Z,100699.06
2023-02-22T06:07:59.473Z,100710.47
2023-02-22T06:10:26.740Z,100714.69
2023-02-22T06:12:54.162Z,100705.50
2023-02-22T06:15:22.877Z,100695.47
2023-02-22T06:17:49.621Z,100700.91
2023-02-22T06:20:19.975Z,100703.44
2023-02-22T06:22:51.001Z,100697.16
2023-02-22T06:25:21.327Z,100694.63
2023-02-22T06:27:47.975Z,100697.50
2023-02-22T06:30:23.690Z,100697.50
2023-02-22T06:32:50.436Z,100698.88
2023-02-22T06:35:18.000Z,100690.72
2023-02-22T06:37:44.661Z,100690.72
2023-02-22T06:40:12.472Z,100699.91
2023-02-22T06:42:39.758Z,100695.50
2023-02-22T06:45:07.400Z,100699.25
2023-02-22T06:47:33.903Z,100701.97
2023-02-22T06:50:00.990Z,100697.88
2023-02-22T06:52:27.487Z,100705.03
2023-02-22T06:54:53.931Z,100702.69
2023-02-22T06:57:21.508Z,100706.41
2023-02-22T06:59:47.975Z,100706.56
2023-02-22T07:02:14.740Z,100713.91
2023-02-22T07:04:43.399Z,100723.78
2023-02-22T07:07:10.798Z,100721.53
2023-02-22T07:09:37.296Z,100720.38
2023-02-22T07:12:05.579Z,100716.25
2023-02-22T07:14:31.946Z,100723.03
2023-02-22T07:16:58.363Z,100727.81
2023-02-22T07:19:24.737Z,100719.09
2023-02-22T07:21:55.315Z,100722.63
2023-02-22T07:24:21.793Z,100719.00
2023-02-22T07:26:48.182Z,100725.66
2023-02-22T07:29:14.588Z,100712.31
2023-02-22T07:31:41.045Z,100716.56
2023-02-22T07:34:07.452Z,100719.78
2023-02-22T07:36:33.910Z,100719.44
2023-02-22T07:39:00.310Z,100723.31
2023-02-22T07:41:26.721Z,100719.19
2023-02-22T07:43:53.108Z,100724.75
2023-02-22T07:46:19.598Z,100721.88
2023-02-22T07:48:46.014Z,100728.66
2023-02-22T07:51:15.866Z,100725.09
2023-02-22T07:53:42.432Z,100712.78
2023-02-22T07:56:08.904Z,100717.50
2023-02-22T07:58:35.705Z,100710.28
2023-02-22T08:01:02.409Z,100714.72
2023-02-22T08:03:31.820Z,100707.13
2023-02-22T08:06:00.442Z,100704.06
2023-02-22T08:08:27.961Z,100701.25
2023-02-22T08:10:54.901Z,100697.97
2023-02-22T08:13:22.634Z,100694.72
2023-02-22T08:15:51.934Z,100697.75
2023-02-22T08:18:19.362Z,100695.00
2023-02-22T08:20:48.082Z,100697.38
2023-02-22T08:23:16.577Z,100689.81
2023-02-22T08:25:42.977Z,100690.13
2023-02-22T08:28:12.031Z,100685.31
2023-02-22T08:30:40.617Z,100688.34
2023-02-22T08:33:07.471Z,100683.84
2023-02-22T08:35:34.212Z,100676.31
2023-02-22T08:38:06.017Z,100675.75
2023-02-22T08:40:37.175Z,100670.59
2023-02-22T08:43:04.487Z,100668.50
2023-02-22T08:45:31.011Z,100673.22
2023-02-22T08:47:59.391Z,100659.84
2023-02-22T08:50:33.462Z,100662.03
2023-02-22T08:53:01.579Z,100668.38
2023-02-22T08:55:32.147Z,100667.50
2023-02-22T08:58:03.179Z,100662.78
2023-02-22T09:00:33.087Z,100670.19
2023-02-22T09:03:03.542Z,100665.97
2023-02-22T09:05:31.569Z,100652.03
2023-02-22T09:07:58.571Z,100655.13
2023-02-22T09:10:28.150Z,100661.63
2023-02-22T09:12:58.306Z,100664.09
2023-02-22T09:15:25.581Z,100659.34
2023-02-22T09:17:53.298Z,100653.50
2023-02-22T09:20:22.104Z,100656.25
2023-02-22T09:22:49.316Z,100663.09
2023-02-22T09:25:17.397Z,100655.78
2023-02-22T09:27:45.084Z,100656.06
2023-02-22T09:30:24.834Z,100658.25
2023-02-22T09:32:53.686Z,100657.56
2023-02-22T09:35:26.819Z,100649.69
2023-02-22T09:37:58.787Z,100650.47
2023-02-22T09:40:30.178Z,100639.41
2023-02-22T09:43:10.678Z,100641.66
2023-02-22T09:45:48.224Z,100635.63
2023-02-22T09:48:22.108Z,100631.19
2023-02-22T09:50:51.507Z,100618.41
2023-02-22T09:53:29.692Z,100622.78
2023-02-22T09:56:10.990Z,100628.19
2023-02-22T09:58:45.793Z,100634.00
2023-02-22T10:01:39.100Z,100629.25
2023-02-22T10:04:52.735Z,100631.00
2023-02-22T10:07:34.541Z,100629.56
2023-02-22T10:10:06.310Z,100629.78
2023-02-22T10:12:48.061Z,100628.81
2023-02-22T10:15:23.321Z,100620.28
2023-02-22T10:18:17.311Z,100625.25
2023-02-22T10:21:38.306Z,100625.13
2023-02-22T10:24:39.657Z,100616.34
2023-02-22T10:27:13.339Z,100620.22
2023-02-22T10:29:43.806Z,100624.84
2023-02-22T10:32:25.458Z,100621.09
2023-02-22T10:34:54.713Z,100621.88
2023-02-22T10:37:31.532Z,100619.84
2023-02-22T10:40:11.606Z,100614.38
2023-02-22T10:42:38.048Z,100601.84
2023-02-22T10:45:06.133Z,100600.44
2023-02-22T10:47:33.887Z,100609.97
2023-02-22T10:50:01.483Z,100599.00
2023-02-22T10:52:31.103Z,100597.78
2023-02-22T10:55:13.769Z,100601.34
2023-02-22T10:57:44.240Z,100599.88
2023-02-22T11:00:15.459Z,100605.41
2023-02-22T11:02:54.631Z,100589.13
2023-02-22T11:05:36.890Z,100595.88
2023-02-22T11:08:21.756Z,100582.59
2023-02-22T11:10:49.850Z,100580.06
2023-02-22T11:13:30.024Z,100584.69
2023-02-22T11:16:16.345Z,100565.41
2023-02-22T11:18:43.089Z,100559.31
2023-02-22T11:21:12.331Z,100561.66
2023-02-22T11:23:44.392Z,100562.06
2023-02-22T11:26:20.698Z,100561.88
2023-02-22T11:28:50.833Z,100557.59
2023-02-22T11:31:23.979Z,100546.97
2023-02-22T11:34:27.156Z,100544.22
2023-02-22T11:36:53.592Z,100536.41
2023-02-22T11:39:29.600Z,100533.41
2023-02-22T11:41:56.728Z,100536.72
2023-02-22T11:44:24.975Z,100525.69
2023-02-22T11:46:55.641Z,100530.94
2023-02-22T11:49:33.240Z,100530.22
2023-02-22T11:52:09.232Z,100525.88
2023-02-22T11:55:00.896Z,100523.19
2023-02-22T11:58:13.571Z,100512.25
2023-02-22T12:00:58.693Z,100513.22
2023-02-22T12:03:38.199Z,100499.94
2023-02-22T12:06:29.222Z,100495.75
2023-02-22T12:09:07.452Z,100499.97
2023-02-22T12:11:45.348Z,100492.09
2023-02-22T12:14:34.420Z,100491.41
2023-02-22T12:17:09.714Z,100488.78
2023-02-22T12:19:49.049Z,100487.94
2023-02-22T12:22:21.619Z,100488.00
2023-02-22T12:25:12.202Z,100486.19
2023-02-22T12:27:49.204Z,100485.97
2023-02-22T12:30:24.081Z,100469.84
2023-02-22T12:32:53.808Z,100471.22
2023-02-22T12:35:35.182Z,100463.69
2023-02-22T12:38:23.400Z,100456.03
2023-02-22T12:41:13.910Z,100457.28
2023-02-22T12:43:51.724Z,100451.06
2023-02-22T12:46:23.119Z,100452.03
2023-02-22T12:49:00.839Z,100455.31
2023-02-22T12:51:31.110Z,100447.47
2023-02-22T12:54:35.108Z,100439.59
2023-02-22T12:57:46.574Z,100435.88
2023-02-22T13:00:26.263Z,100438.91
2023-02-22T13:03:01.157Z,100440.44
2023-02-22T13:05:34.632Z,100439.41
2023-02-22T13:08:13.471Z,100434.28
2023-02-22T13:10:58.709Z,100431.09
2023-02-22T13:13:36.515Z,100435.88
2023-02-22T13:16:24.413Z,100436.38
2023-02-22T13:19:03.694Z,100438.66
2023-02-22T13:21:45.407Z,100434.81
2023-02-22T13:24:44.109Z,100424.56
2023-02-22T13:27:16.901Z,100425.63
2023-02-22T13:29:48.460Z,100425.72
2023-02-22T13:32:45.238Z,100411.63
2023-02-22T13:35:38.232Z,100416.69
2023-02-22T13:38:23.276Z,100413.50
2023-02-22T13:41:15.227Z,100398.22
2023-02-22T13:44:06.598Z,100411.50
2023-02-22T13:46:40.688Z,100408.75
2023-02-22T13:49:30.129Z,100396.97
2023-02-22T13:52:01.409Z,100401.22
2023-02-22T13:54:44.574Z,100394.81
2023-02-22T13:57:33.391Z,100389.19
2023-02-22T14:00:14.783Z,100390.22
2023-02-22T14:03:01.572Z,100398.56
2023-02-22T14:05:43.276Z,100398.69
2023-02-22T14:08:21.822Z,100390.91
2023-02-22T14:10:51.177Z,100377.97
2023-02-22T14:13:26.623Z,100384.78
2023-02-22T14:16:05.164Z,100381.22
2023-02-22T14:18:43.669Z,100380.81
2023-02-22T14:21:20.316Z,100386.84
2023-02-22T14:23:53.916Z,100384.59
2023-02-22T14:26:28.329Z,100385.81
2023-02-22T14:29:02.805Z,100380.22
2023-02-22T14:31:37.348Z,100375.31
2023-02-22T14:34:04.158Z,100385.34
2023-02-22T14:36:37.968Z,100379.28
2023-02-22T14:39:16.225Z,100373.19
2023-02-22T14:41:50.014Z,100371.59
2023-02-22T14:44:24.179Z,100374.28
2023-02-22T14:46:53.979Z,100369.69
2023-02-22T14:49:24.917Z,100370.63
2023-02-22T14:51:59.619Z,100367.25
2023-02-22T14:54:31.760Z,100367.19
2023-02-22T14:57:24.361Z,100373.72
2023-02-22T15:00:08.203Z,100370.38
2023-02-22T15:02:38.875Z,100373.16
2023-02-22T15:05:05.532Z,100373.09
2023-02-22T15:07:35.747Z,100370.22
2023-02-22T15:10:25.912Z,100370.06
2023-02-22T15:13:10.983Z,100368.19
2023-02-22T15:15:46.951Z,100362.59
2023-02-22T15:18:40.641Z,100361.31
2023-02-22T15:21:13.108Z,100363.72
2023-02-22T15:23:49.000Z,100371.03
2023-02-22T15:26:42.492Z,100378.34
2023-02-22T15:29:19.260Z,100379.09
2023-02-22T15:31:48.250Z,100378.50
2023-02-22T15:34:15.050Z,100369.03
2023-02-22T15:36:44.158Z,100376.09
2023-02-22T15:39:34.170Z,100370.97
2023-02-22T15:42:06.213Z,100376.47
2023-02-22T15:44:41.463Z,100379.38
2023-02-22T15:47:20.869Z,100382.94
2023-02-22T15:50:17.512Z,100380.06
2023-02-22T15:52:53.055Z,100388.28
2023-02-22T15:55:25.526Z,100385.44
2023-02-22T15:57:52.727Z,100386.28
2023-02-22T16:00:33.282Z,100387.59
2023-02-22T16:03:00.226Z,100382.00
2023-02-22T16:05:37.090Z,100385.50
2023-02-22T16:08:04.020Z,100389.50
2023-02-22T16:10:33.498Z,100388.31
2023-02-22T16:13:32.507Z,100390.75
2023-02-22T16:16:03.974Z,100390.91
2023-02-22T16:18:36.473Z,100397.78
2023-02-22T16:21:13.871Z,100393.56
2023-02-22T16:23:51.651Z,100395.78
2023-02-22T16:26:30.263Z,100395.78
2023-02-22T16:29:05.979Z,100399.00
2023-02-22T16:31:37.640Z,100398.44
2023-02-22T16:34:06.493Z,100399.50
2023-02-22T16:36:45.812Z,100393.91
2023-02-22T16:39:22.301Z,100404.63
2023-02-22T16:41:50.606Z,100403.44
2023-02-22T16:44:17.711Z,100398.63
2023-02-22T16:46:44.352Z,100394.69
2023-02-22T16:49:12.450Z,100399.03
2023-02-22T16:51:49.316Z,100398.09
2023-02-22T16:54:25.262Z,100409.88
2023-02-22T16:56:54.496Z,100417.22
2023-02-22T16:59:21.082Z,100409.69
2023-02-22T17:01:47.503Z,100416.19
2023-02-22T17:04:28.664Z,100417.16
2023-02-22T17:06:55.070Z,100422.84
2023-02-22T17:09:21.476Z,100424.13
2023-02-22T17:11:51.361Z,100429.56
2023-02-22T17:14:23.205Z,100422.84
2023-02-22T17:16:52.666Z,100433.56
2023-02-22T17:19:22.469Z,100432.56
2023-02-22T17:21:50.115Z,100436.31
2023-02-22T17:24:20.051Z,100443.38
2023-02-22T17:26:46.489Z,100445.41
2023-02-22T17:29:13.751Z,100438.09
2023-02-22T17:31:40.278Z,100446.25
2023-02-22T17:34:07.225Z,100446.75
2023-02-22T17:36:36.343Z,100445.28
2023-02-22T17:39:04.537Z,100451.53
2023-02-22T17:41:31.444Z,100448.63
2023-02-22T17:44:00.790Z,100454.66
2023-02-22T17:46:27.334Z,100458.34
2023-02-22T17:48:54.116Z,100458.81
2023-02-22T17:51:22.707Z,100462.06
2023-02-22T17:53:49.131Z,100458.09
2023-02-22T17:56:21.119Z,100459.63
2023-02-22T17:58:53.142Z,100467.44
2023-02-22T18:01:28.349Z,100461.16
2023-02-22T18:03:58.457Z,100469.06
2023-02-22T18:06:27.173Z,100465.13
2023-02-22T18:08:56.582Z,100466.66
2023-02-22T18:11:26.373Z,100466.50
2023-02-22T18:13:55.410Z,100463.16
2023-02-22T18:16:22.581Z,100466.59
2023-02-22T18:18:49.737Z,100457.97
2023-02-22T18:21:16.288Z,100465.00
2023-02-22T18:23:44.748Z,100469.31
2023-02-22T18:26:16.964Z,100464.25
2023-02-22T18:28:43.674Z,100468.56
2023-02-22T18:31:15.116Z,100475.63
2023-02-22T18:33:49.119Z,100466.13
2023-02-22T18:36:16.997Z,100468.97
2023-02-22T18:38:44.628Z,100466.44
2023-02-22T18:41:16.126Z,100464.97
2023-02-22T18:43:43.478Z,100466.03
2023-02-22T18:46:09.831Z,100462.44
2023-02-22T18:48:36.404Z,100468.41
2023-02-22T18:51:05.819Z,100466.09
2023-02-22T18:53:32.706Z,100470.19
2023-02-22T18:56:06.990Z,100480.81
2023-02-22T18:58:33.445Z,100473.84
2023-02-22T19:01:01.235Z,100478.75
2023-02-22T19:03:28.654Z,100485.16
2023-02-22T19:06:00.285Z,100484.78
2023-02-22T19:08:26.730Z,100488.25
2023-02-22T19:10:53.114Z,100487.03
2023-02-22T19:13:20.992Z,100482.78
2023-02-22T19:15:47.445Z,100483.88
2023-02-22T19:18:13.927Z,100481.34
2023-02-22T19:23:10.293Z,100482.00
2023-02-22T19:25:41.018Z,100475.66
2023-02-22T19:28:07.434Z,100475.28
2023-02-22T19:30:33.886Z,100474.66
2023-02-22T19:33:02.556Z,100482.56
2023-02-22T19:35:29.837Z,100483.00
2023-02-22T19:37:56.247Z,100481.78
2023-02-22T19:40:23.217Z,100480.09
2023-02-22T19:42:54.630Z,100475.88
2023-02-22T19:45:23.385Z,100480.53
2023-02-22T19:47:56.236Z,100479.47
2023-02-22T19:50:22.998Z,100484.13
2023-02-22T19:52:49.492Z,100488.59
2023-02-22T19:55:15.939Z,100483.47
2023-02-22T19:57:49.826Z,100489.78
2023-02-22T20:00:24.291Z,100500.81
2023-02-22T20:03:05.462Z,100495.09
2023-02-22T20:05:33.720Z,100489.78
2023-02-22T20:08:00.185Z,100495.31
2023-02-22T20:10:26.695Z,100493.66
2023-02-22T20:12:53.138Z,100489.19
2023-02-22T20:15:19.569Z,100495.31
2023-02-22T20:17:50.277Z,100498.91
2023-02-22T20:20:18.372Z,100506.31
2023-02-22T20:22:45.583Z,100500.00
2023-02-22T20:25:13.560Z,100497.00
2023-02-22T20:27:40.168Z,100499.75
2023-02-22T20:30:09.794Z,100515.22
2023-02-22T20:32:37.763Z,100499.75
2023-02-22T20:35:05.715Z,100512.69
2023-02-22T20:37:33.991Z,100512.94
2023-02-22T20:40:00.449Z,100516.75
2023-02-22T20:42:27.415Z,100513.38
2023-02-22T20:44:54.487Z,100515.28
2023-02-22T20:47:20.974Z,100510.84
2023-02-22T20:49:47.383Z,100507.25
2023-02-22T20:52:13.759Z,100512.75
2023-02-22T20:54:40.221Z,100515.28
2023-02-22T20:57:08.086Z,100523.56
2023-02-22T20:59:34.580Z,100527.16
2023-02-22T21:02:00.987Z,100521.66
2023-02-22T21:04:32.923Z,100521.66
2023-02-22T21:07:03.127Z,100523.78
2023-02-22T21:09:29.794Z,100519.31
2023-02-22T21:11:56.201Z,100525.91
2023-02-22T21:14:24.248Z,100526.34
2023-02-22T21:16:51.894Z,100523.00
2023-02-22T21:19:25.656Z,100527.66
2023-02-22T21:21:56.364Z,100524.06
2023-02-22T21:24:25.085Z,100524.28
2023-02-22T21:26:52.130Z,100530.66
2023-02-22T21:29:19.317Z,100528.09
2023-02-22T21:31:45.918Z,100526.66
2023-02-22T21:34:13.638Z,100527.91
2023-02-22T21:36:40.149Z,100534.28
2023-02-22T21:39:18.229Z,100529.00
2023-02-22T21:41:49.716Z,100529.22
2023-02-22T21:44:17.064Z,100531.97
2023-02-22T21:46:43.794Z,100535.19
2023-02-22T21:49:11.261Z,100530.75
2023-02-22T21:51:40.704Z,100535.41
2023-02-22T21:54:09.694Z,100546.66
2023-02-22T21:56:39.761Z,100535.66
2023-02-22T21:59:19.059Z,100535.66
2023-02-22T22:01:49.597Z,100538.16
2023-02-22T22:04:21.338Z,100537.94
2023-02-22T22:06:50.845Z,100537.50
2023-02-22T22:09:20.599Z,100541.31
2023-02-22T22:11:49.756Z,100543.84
2023-02-22T22:14:20.351Z,100536.44
2023-02-22T22:16:48.618Z,100533.69
2023-02-22T22:19:15.257Z,100540.84
2023-02-22T22:21:41.862Z,100536.44
2023-02-22T22:24:10.409Z,100540.63
2023-02-22T22:26:38.093Z,100531.53
2023-02-22T22:29:05.468Z,100532.59
2023-02-22T22:31:32.178Z,100529.81
2023-02-22T22:33:58.621Z,100537.50
2023-02-22T22:36:27.014Z,100537.28
2023-02-22T22:38:57.435Z,100533.69
2023-02-22T22:41:27.927Z,100535.78
2023-02-22T22:43:54.814Z,100534.13
2023-02-22T22:46:21.520Z,100534.94
2023-02-22T22:48:48.196Z,100531.38
2023-02-22T22:51:19.748Z,100534.72
2023-02-22T22:53:48.538Z,100531.13
2023-02-22T22:56:20.898Z,100539.19
2023-02-22T22:58:49.640Z,100532.81
2023-02-22T23:01:19.621Z,100537.50
2023-02-22T23:03:55.964Z,100535.41
2023-02-22T23:06:25.100Z,100536.91
2023-02-22T23:09:00.142Z,100542.66
2023-02-22T23:11:33.641Z,100539.66
2023-02-22T23:14:03.517Z,100541.34
2023-02-22T23:16:32.203Z,100532.03
2023-02-22T23:18:58.952Z,100532.03
2023-02-22T23:21:25.470Z,100530.13
2023-02-22T23:23:56.249Z,100536.69
2023-02-22T23:26:26.452Z,100530.56
2023-02-22T23:28:59.124Z,100536.69
2023-02-22T23:31:28.862Z,100530.56
2023-02-22T23:33:58.538Z,100535.47
2023-02-22T23:36:26.308Z,100526.59
2023-02-22T23:38:54.185Z,100532.09
2023-02-22T23:41:20.990Z,100526.59
2023-02-22T23:43:47.571Z,100525.94
2023-02-22T23:46:18.680Z,100523.19
2023-02-22T23:48:54.420Z,100530.84
2023-02-22T23:51:25.427Z,100529.16
2023-02-22T23:53:55.702Z,100530.22
2023-02-22T23:56:27.832Z,100527.47
2023-02-22T23:58:57.365Z,100531.69
